Time;durP1;ratioP1;P1;durP2;ratioP2;P2;SDS_P1;SDS_P2;PMS_P1;PMS_P2;Temp;Humidity;BMP_temperature;BMP_pressure;BME280_temperature;BME280_humidity;BME280_pressure;Samples;Min_cycle;Max_cycle;Signal;HPM_P1;HPM_P2
2021/08/19 00:00:44;;;;;;;6.03;3.50;;;;;;;20.78;62.42;101304.03;5052458;28;20278;-61
2021/08/19 00:03:10;;;;;;;6.00;3.65;;;;;;;20.78;62.29;101309.34;5051429;28;20377;-61
2021/08/19 00:05:35;;;;;;;5.18;3.22;;;;;;;20.79;62.16;101303.06;5052301;28;20021;-61
2021/08/19 00:08:00;;;;;;;5.10;3.28;;;;;;;20.78;62.29;101299.56;5052040;28;20021;-61
2021/08/19 00:10:26;;;;;;;5.22;3.08;;;;;;;20.78;62.19;101304.88;5051550;28;20025;-61
2021/08/19 00:12:51;;;;;;;5.50;3.70;;;;;;;20.77;62.24;101303.19;5052122;28;20552;-60
2021/08/19 00:15:16;;;;;;;5.50;3.50;;;;;;;20.77;62.27;101307.66;5052253;28;20033;-61
2021/08/19 00:17:42;;;;;;;6.10;3.67;;;;;;;20.77;62.28;101305.00;5052082;28;20277;-60
2021/08/19 00:20:08;;;;;;;4.97;3.30;;;;;;;20.75;62.34;101306.94;5055811;28;20048;-60
2021/08/19 00:22:33;;;;;;;7.35;3.20;;;;;;;20.77;62.41;101305.00;5055661;28;20021;-61
2021/08/19 00:25:00;;;;;;;6.05;3.65;;;;;;;20.77;62.24;101307.66;5055262;28;20055;-61
2021/08/19 00:27:26;;;;;;;4.90;3.25;;;;;;;20.74;62.44;101300.78;5055959;28;20029;-61
2021/08/19 00:29:51;;;;;;;6.40;3.50;;;;;;;20.75;62.26;101296.34;5055067;28;20021;-61
2021/08/19 00:32:19;;;;;;;6.70;3.72;;;;;;;20.75;62.31;101297.19;5056036;28;20370;-61
2021/08/19 00:34:44;;;;;;;5.70;3.83;;;;;;;20.74;62.14;101292.00;5055534;28;20021;-60
2021/08/19 00:37:10;;;;;;;5.93;3.87;;;;;;;20.75;62.16;101291.06;5055157;28;20484;-61
2021/08/19 00:39:37;;;;;;;5.40;3.40;;;;;;;20.74;62.30;101295.50;5056013;28;20276;-61
2021/08/19 00:42:06;;;;;;;5.88;3.60;;;;;;;20.74;62.30;101290.19;5055601;28;20090;-61
2021/08/19 00:44:32;;;;;;;5.45;4.00;;;;;;;20.75;62.30;101296.34;5054918;28;20029;-60
2021/08/19 00:46:57;;;;;;;5.70;3.90;;;;;;;20.74;62.21;101286.72;5055350;28;20070;-61
2021/08/19 00:49:22;;;;;;;5.38;3.45;;;;;;;20.72;62.31;101286.84;5055290;28;20052;-60
2021/08/19 00:51:50;;;;;;;6.82;3.72;;;;;;;20.72;62.22;101281.56;5054425;28;20104;-61
2021/08/19 00:54:26;;;;;;;6.35;3.63;;;;;;;20.72;62.19;101283.38;5055604;28;20052;-63
2021/08/19 00:56:54;;;;;;;5.68;3.67;;;;;;;20.72;62.35;101283.38;5055338;28;20017;-59
2021/08/19 00:59:28;;;;;;;6.63;3.65;;;;;;;20.70;62.29;101272.91;5054995;28;20040;-60
2021/08/19 01:01:54;;;;;;;5.25;3.50;;;;;;;20.72;62.19;101280.72;5055176;28;20116;-60
2021/08/19 01:04:20;;;;;;;6.07;3.85;;;;;;;20.69;62.18;101273.03;5055187;28;20047;-60
2021/08/19 01:06:45;;;;;;;5.13;3.70;;;;;;;20.72;62.25;101283.38;5054244;28;20092;-61
2021/08/19 01:09:10;;;;;;;6.05;3.60;;;;;;;20.70;62.17;101278.22;5055348;28;20119;-61
2021/08/19 01:11:40;;;;;;;6.05;3.47;;;;;;;20.71;62.28;101279.91;5055284;28;20031;-62
2021/08/19 01:14:08;;;;;;;5.45;3.63;;;;;;;20.70;62.15;101282.69;5054286;28;20031;-60
2021/08/19 01:16:34;;;;;;;5.47;3.70;;;;;;;20.69;62.37;101279.16;5054982;28;20079;-61
2021/08/19 01:18:59;;;;;;;6.07;3.90;;;;;;;20.71;62.23;101279.03;5053772;28;20025;-60
2021/08/19 01:21:30;;;;;;;5.72;3.80;;;;;;;20.67;62.31;101275.81;5055202;28;20372;-60
2021/08/19 01:23:56;;;;;;;6.28;4.15;;;;;;;20.68;62.32;101277.50;5054748;28;20047;-60
2021/08/19 01:26:22;;;;;;;5.97;3.92;;;;;;;20.70;62.40;101274.72;5054256;28;20459;-61
2021/08/19 01:28:48;;;;;;;6.60;4.20;;;;;;;20.69;62.22;101273.03;5054582;28;20492;-61
2021/08/19 01:31:36;;;;;;;5.60;4.00;;;;;;;20.69;62.30;101271.22;5054683;28;20116;-62
2021/08/19 01:34:02;;;;;;;6.05;4.18;;;;;;;20.67;62.31;101267.03;5053843;28;20021;-60
2021/08/19 01:36:28;;;;;;;6.88;4.18;;;;;;;20.69;62.27;101265.94;5054658;28;20091;-60
2021/08/19 01:38:53;;;;;;;5.47;3.80;;;;;;;20.68;62.28;101274.00;5054234;28;20489;-60
2021/08/19 01:41:20;;;;;;;6.85;4.55;;;;;;;20.69;62.10;101279.16;5053670;28;20067;-60
2021/08/19 01:43:52;;;;;;;5.95;4.30;;;;;;;20.68;62.42;101269.56;5054108;28;20040;-60
2021/08/19 01:46:19;;;;;;;6.07;3.80;;;;;;;20.69;62.38;101270.38;5054688;28;20025;-61
2021/08/19 01:48:54;;;;;;;6.78;4.47;;;;;;;20.69;62.29;101267.75;5053484;28;20418;-60
2021/08/19 01:51:20;;;;;;;6.72;4.03;;;;;;;20.68;62.36;101268.69;5054334;28;20075;-64
2021/08/19 01:53:49;;;;;;;7.93;4.10;;;;;;;20.66;62.08;101266.19;5054045;28;20033;-61
2021/08/19 01:56:19;;;;;;;5.72;3.92;;;;;;;20.68;62.32;101263.41;5053512;28;20040;-61
2021/08/19 01:58:49;;;;;;;6.32;4.00;;;;;;;20.67;62.15;101265.22;5054316;28;20083;-59
2021/08/19 02:01:21;;;;;;;6.53;3.72;;;;;;;20.68;62.18;101264.28;5053564;28;20021;-60
2021/08/19 02:03:48;;;;;;;6.32;4.20;;;;;;;20.66;62.16;101258.25;5054041;28;20028;-61
2021/08/19 02:06:13;;;;;;;6.32;4.10;;;;;;;20.67;62.20;101267.03;5054131;28;20082;-61
2021/08/19 02:08:39;;;;;;;6.78;4.72;;;;;;;20.67;62.31;101267.03;5052920;28;20459;-59
2021/08/19 02:11:05;;;;;;;6.93;4.68;;;;;;;20.62;62.05;101262.94;5054112;28;20032;-61
2021/08/19 02:13:30;;;;;;;6.90;4.53;;;;;;;20.65;62.30;101267.19;5053903;28;20468;-60
2021/08/19 02:15:55;;;;;;;6.40;4.25;;;;;;;20.63;62.12;101267.28;5053106;28;20069;-60
2021/08/19 02:18:20;;;;;;;6.85;4.28;;;;;;;20.64;62.28;101261.03;5054081;28;20020;-61
2021/08/19 02:20:46;;;;;;;6.30;4.27;;;;;;;20.65;62.13;101264.53;5053472;28;20025;-60
2021/08/19 02:23:11;;;;;;;6.28;4.47;;;;;;;20.64;62.05;101260.19;5053457;28;20309;-61
2021/08/19 02:25:36;;;;;;;7.60;4.20;;;;;;;20.63;62.26;101259.31;5053790;28;20477;-61
2021/08/19 02:28:02;;;;;;;7.20;4.60;;;;;;;20.62;62.34;101257.63;5053656;28;20021;-60
2021/08/19 02:30:27;;;;;;;6.60;4.25;;;;;;;20.63;62.47;101258.47;5053143;28;20020;-60
2021/08/19 02:32:55;;;;;;;6.32;4.40;;;;;;;20.60;62.33;101254.28;5053531;28;20052;-60
2021/08/19 02:35:25;;;;;;;6.72;4.70;;;;;;;20.62;62.26;101248.88;5053571;28;20032;-61
2021/08/19 02:37:54;;;;;;;6.80;4.65;;;;;;;20.63;62.31;101258.47;5052570;28;20530;-60
2021/08/19 02:40:21;;;;;;;7.18;4.85;;;;;;;20.61;62.35;101255.13;5053125;28;20025;-60
2021/08/19 02:42:46;;;;;;;7.20;4.43;;;;;;;20.62;62.18;101252.34;5053609;28;20021;-61
2021/08/19 02:45:12;;;;;;;8.57;4.57;;;;;;;20.61;62.35;101249.81;5053037;28;20469;-61
2021/08/19 02:47:37;;;;;;;6.47;4.40;;;;;;;20.62;62.23;101243.56;5053294;28;20066;-62
2021/08/19 02:50:03;;;;;;;6.85;4.95;;;;;;;20.61;62.22;101255.94;5053040;28;20041;-61
2021/08/19 02:52:28;;;;;;;6.72;4.75;;;;;;;20.59;62.10;101249.13;5052540;28;20534;-61
2021/08/19 02:54:53;;;;;;;6.60;4.95;;;;;;;20.61;62.17;101244.53;5053018;28;20040;-62
2021/08/19 02:57:19;;;;;;;6.20;4.60;;;;;;;20.61;62.23;101245.34;5052656;28;20039;-61
2021/08/19 02:59:44;;;;;;;7.30;4.80;;;;;;;20.59;62.07;101247.31;5053142;28;20362;-61
2021/08/19 03:02:09;;;;;;;7.47;5.50;;;;;;;20.61;62.31;101252.47;5053299;28;20396;-60
2021/08/19 03:04:34;;;;;;;9.45;5.15;;;;;;;20.61;62.08;101247.19;5052419;28;20278;-61
2021/08/19 03:07:00;;;;;;;7.18;5.15;;;;;;;20.61;62.29;101255.94;5052786;28;20021;-60
2021/08/19 03:09:25;;;;;;;10.82;5.88;;;;;;;20.61;62.11;101250.66;5052919;28;20029;-60
2021/08/19 03:11:51;;;;;;;7.38;5.63;;;;;;;20.60;62.35;101246.34;5052148;28;20052;-61
2021/08/19 03:14:16;;;;;;;7.25;4.82;;;;;;;20.60;62.31;101246.34;5052856;28;20075;-61
2021/08/19 03:16:42;;;;;;;7.60;5.22;;;;;;;20.60;62.00;101242.84;5057796;28;20043;-60
2021/08/19 03:19:10;;;;;;;6.70;4.93;;;;;;;20.60;62.08;101241.06;5056966;28;20029;-60
2021/08/19 03:21:38;;;;;;;7.00;5.20;;;;;;;20.60;61.97;101248.13;5057466;28;20021;-60
2021/08/19 03:24:04;;;;;;;7.20;5.25;;;;;;;20.59;62.11;101244.66;5058402;28;20025;-60
2021/08/19 03:26:31;;;;;;;6.75;5.35;;;;;;;20.60;62.31;101248.13;5057755;28;20461;-61
2021/08/19 03:28:57;;;;;;;7.55;5.20;;;;;;;20.59;62.17;101246.47;5058609;28;20029;-61
2021/08/19 03:31:24;;;;;;;7.55;5.55;;;;;;;20.59;62.17;101244.66;5059250;28;20017;-60
2021/08/19 03:33:52;;;;;;;8.20;5.38;;;;;;;20.59;61.97;101243.84;5057120;28;20025;-60
2021/08/19 03:36:17;;;;;;;8.40;5.68;;;;;;;20.58;62.08;101250.91;5053113;28;20048;-60
2021/08/19 03:38:43;;;;;;;7.32;5.70;;;;;;;20.57;62.11;101243.97;5053124;28;20052;-61
2021/08/19 03:41:09;;;;;;;7.93;5.88;;;;;;;20.58;62.13;101242.16;5051802;28;20028;-60
2021/08/19 03:43:36;;;;;;;6.80;5.07;;;;;;;20.56;61.99;101244.09;5052785;28;20029;-61
2021/08/19 03:46:01;;;;;;;6.57;5.32;;;;;;;20.58;62.06;101248.25;5052046;28;20036;-61
2021/08/19 03:48:27;;;;;;;6.50;5.22;;;;;;;20.58;61.96;101242.97;5051817;28;20017;-60
2021/08/19 03:50:52;;;;;;;7.13;5.20;;;;;;;20.58;62.11;101244.78;5051736;28;20048;-61
2021/08/19 03:53:18;;;;;;;8.80;6.07;;;;;;;20.58;61.89;101244.78;5054184;28;20031;-61
2021/08/19 03:55:44;;;;;;;7.88;5.82;;;;;;;20.58;62.12;101247.44;5055899;28;20029;-61
2021/08/19 03:58:09;;;;;;;8.07;5.93;;;;;;;20.57;61.96;101251.03;5056716;28;20020;-60
2021/08/19 04:00:34;;;;;;;8.55;5.95;;;;;;;20.56;62.21;101242.28;5056442;28;20384;-61
2021/08/19 04:03:00;;;;;;;7.32;5.63;;;;;;;20.58;61.97;101255.38;5055680;28;20070;-61
2021/08/19 04:05:26;;;;;;;9.40;5.57;;;;;;;20.57;62.12;101259.84;5056303;28;20070;-61
2021/08/19 04:07:51;;;;;;;7.72;6.00;;;;;;;20.56;62.10;101250.22;5055481;28;20083;-60
2021/08/19 04:10:18;;;;;;;8.57;5.43;;;;;;;20.57;61.98;101256.34;5056369;28;20116;-60
2021/08/19 04:12:43;;;;;;;8.18;5.38;;;;;;;20.56;61.98;101252.88;5056088;28;20281;-60
2021/08/19 04:15:09;;;;;;;6.85;5.95;;;;;;;20.56;62.06;101252.88;5055397;28;20036;-61
2021/08/19 04:17:34;;;;;;;7.13;5.68;;;;;;;20.56;62.16;101258.16;5056191;28;20051;-60
2021/08/19 04:20:00;;;;;;;8.13;5.90;;;;;;;20.54;62.15;101244.22;5055759;28;20017;-60
2021/08/19 04:22:25;;;;;;;8.43;5.63;;;;;;;20.55;62.15;101245.06;5055517;28;20021;-61
2021/08/19 04:24:50;;;;;;;6.70;5.35;;;;;;;20.53;61.94;101247.00;5055793;28;20025;-61
2021/08/19 04:27:15;;;;;;;8.57;5.93;;;;;;;20.56;62.06;101246.75;5055958;28;20500;-61
2021/08/19 04:29:41;;;;;;;7.90;6.07;;;;;;;20.55;62.08;101247.69;5055270;28;20064;-61
2021/08/19 04:32:06;;;;;;;7.43;5.85;;;;;;;20.53;62.01;101244.34;5055620;28;20036;-60
2021/08/19 04:34:34;;;;;;;8.20;6.45;;;;;;;20.53;62.02;101250.47;5055827;28;20029;-60
2021/08/19 04:36:59;;;;;;;7.30;5.70;;;;;;;20.54;61.81;101246.88;5054884;28;20086;-60
2021/08/19 04:39:27;;;;;;;7.93;5.90;;;;;;;20.55;61.94;101253.00;5055982;28;20029;-61
2021/08/19 04:41:52;;;;;;;7.75;6.10;;;;;;;20.55;62.01;101253.00;5055333;28;20447;-60
2021/08/19 04:44:18;;;;;;;7.60;5.75;;;;;;;20.53;62.09;101244.34;5054853;28;20021;-62
2021/08/19 04:46:43;;;;;;;8.15;6.38;;;;;;;20.54;61.96;101253.97;5055440;28;20051;-60
2021/08/19 04:49:08;;;;;;;8.80;6.03;;;;;;;20.52;61.86;101243.53;5055283;28;20029;-61
2021/08/19 04:51:35;;;;;;;9.85;6.30;;;;;;;20.55;61.95;101253.00;5053886;28;20021;-60
2021/08/19 04:54:02;;;;;;;8.18;6.32;;;;;;;20.53;62.16;101253.13;5053894;28;20024;-61
2021/08/19 04:56:29;;;;;;;8.30;6.43;;;;;;;20.54;62.03;101256.63;5054273;28;20032;-61
2021/08/19 04:58:55;;;;;;;8.82;6.53;;;;;;;20.50;62.11;101250.72;5053185;28;20087;-60
2021/08/19 05:01:20;;;;;;;7.88;6.13;;;;;;;20.53;62.04;101247.81;5054223;28;20025;-60
2021/08/19 05:03:46;;;;;;;8.48;6.47;;;;;;;20.51;62.05;101263.00;5053350;28;20021;-60
2021/08/19 05:06:11;;;;;;;8.65;6.60;;;;;;;20.50;62.18;101252.56;5053216;28;20025;-61
2021/08/19 05:08:36;;;;;;;8.35;6.30;;;;;;;20.53;62.04;101262.88;5054157;28;20036;-60
2021/08/19 05:11:01;;;;;;;9.02;6.07;;;;;;;20.50;62.02;101253.38;5053153;28;20024;-61
2021/08/19 05:13:37;;;;;;;;;;;;;;;;;;;;;
2021/08/19 05:16:02;;;;;;;9.75;6.45;;;;;;;20.52;62.04;101267.34;5051422;28;20154;-60
2021/08/19 05:18:27;;;;;;;8.68;6.72;;;;;;;20.50;61.96;101253.38;5053060;28;20107;-61
2021/08/19 05:20:53;;;;;;;8.27;6.32;;;;;;;20.52;61.93;101264.69;5053622;28;20108;-59
2021/08/19 05:23:18;;;;;;;9.57;6.65;;;;;;;20.51;61.84;101264.84;5053924;28;20060;-60
2021/08/19 05:25:43;;;;;;;9.27;6.70;;;;;;;20.52;61.97;101272.66;5052773;28;20483;-60
2021/08/19 05:28:09;;;;;;;9.40;6.97;;;;;;;20.52;61.97;101267.34;5053597;28;20094;-61
2021/08/19 05:30:34;;;;;;;9.48;6.30;;;;;;;20.52;61.94;101275.28;5053820;28;20040;-61
2021/08/19 05:32:59;;;;;;;8.55;6.65;;;;;;;20.51;61.83;101267.47;5052677;28;20033;-59
2021/08/19 05:35:25;;;;;;;9.52;6.57;;;;;;;20.52;62.00;101277.09;5053601;28;20059;-61
2021/08/19 05:37:55;;;;;;;8.50;6.77;;;;;;;20.50;62.06;101274.56;5053325;28;20487;-61
2021/08/19 05:40:21;;;;;;;8.43;6.38;;;;;;;20.52;61.96;101269.13;5052936;28;20313;-60
2021/08/19 05:42:46;;;;;;;9.77;6.80;;;;;;;20.51;61.97;101273.59;5053205;28;20044;-60
2021/08/19 05:45:12;;;;;;;9.15;7.25;;;;;;;20.50;61.94;101271.91;5053398;28;20036;-60
2021/08/19 05:47:37;;;;;;;8.40;6.82;;;;;;;20.51;62.08;101273.59;5052754;28;20055;-61
2021/08/19 05:50:09;;;;;;;8.65;6.38;;;;;;;20.52;61.94;101275.28;5017010;28;1036495;-61
2021/08/19 05:52:35;;;;;;;8.30;6.45;;;;;;;20.51;62.06;101270.13;5054256;28;20037;-60
2021/08/19 05:55:00;;;;;;;7.82;6.70;;;;;;;20.50;62.01;101274.56;5053088;28;20408;-60
2021/08/19 05:57:25;;;;;;;9.73;7.10;;;;;;;20.50;62.05;101279.03;5054242;28;20477;-59
2021/08/19 05:59:52;;;;;;;8.67;6.53;;;;;;;20.46;61.92;101275.81;5053712;28;20270;-59
2021/08/19 06:02:17;;;;;;;9.88;7.18;;;;;;;20.51;62.25;101281.53;5053192;28;20270;-61
2021/08/19 06:04:42;;;;;;;9.13;6.97;;;;;;;20.49;62.31;101283.50;5054051;28;20036;-62
2021/08/19 06:07:07;;;;;;;10.18;7.13;;;;;;;20.52;62.63;101275.28;5053580;28;20273;-63
2021/08/19 06:09:34;;;;;;;9.47;6.77;;;;;;;20.51;61.68;101286.00;5053118;28;20025;-61
2021/08/19 06:11:59;;;;;;;9.60;6.43;;;;;;;20.54;62.60;101285.75;5053698;28;20274;-62
2021/08/19 06:14:25;;;;;;;8.55;6.22;;;;;;;20.56;62.60;101286.47;5052953;28;20047;-61
2021/08/19 06:16:50;;;;;;;11.57;6.65;;;;;;;20.57;62.58;101293.41;5052524;28;20128;-61
2021/08/19 06:19:15;;;;;;;9.90;6.10;;;;;;;20.58;62.60;101293.28;5053856;28;20362;-61
2021/08/19 06:21:41;;;;;;;7.70;5.97;;;;;;;20.58;62.63;101287.97;5053235;28;20055;-60
2021/08/19 06:24:06;;;;;;;10.73;6.80;;;;;;;20.58;62.60;101290.63;5053505;28;20020;-60
2021/08/19 06:26:31;;;;;;;11.80;6.85;;;;;;;20.56;62.77;101295.22;5053641;28;20040;-61
2021/08/19 06:29:00;;;;;;;10.00;6.68;;;;;;;20.58;62.65;101285.34;5052636;28;20025;-61
2021/08/19 06:31:25;;;;;;;8.95;6.30;;;;;;;20.61;63.07;101294.84;5053421;28;20397;-60
2021/08/19 06:33:50;;;;;;;9.77;6.23;;;;;;;20.60;62.93;101288.72;5053288;28;20025;-60
2021/08/19 06:36:15;;;;;;;9.73;6.82;;;;;;;20.63;62.88;101287.59;5053080;28;20294;-60
2021/08/19 06:38:41;;;;;;;9.70;6.50;;;;;;;20.64;62.98;101291.97;5053529;28;20029;-59
2021/08/19 06:41:06;;;;;;;12.48;6.80;;;;;;;20.67;63.08;101293.53;5053132;28;20343;-59
2021/08/19 06:43:31;;;;;;;9.70;6.88;;;;;;;20.66;63.07;101297.97;5052461;28;20029;-60
2021/08/19 06:45:57;;;;;;;13.00;7.65;;;;;;;20.66;63.29;101297.97;5052852;28;20120;-59
2021/08/19 06:48:22;;;;;;;10.73;7.07;;;;;;;20.67;63.33;101299.66;5053526;28;20029;-59
2021/08/19 06:50:48;;;;;;;13.52;8.25;;;;;;;20.68;63.56;101298.69;5052224;28;20040;-60
2021/08/19 06:53:13;;;;;;;15.70;7.83;;;;;;;20.69;63.54;101302.16;5053291;28;20469;-59
2021/08/19 06:55:38;;;;;;;10.00;7.50;;;;;;;20.67;63.21;101306.78;5053271;28;20296;-60
2021/08/19 06:58:03;;;;;;;11.53;8.27;;;;;;;20.64;63.03;101307.84;5052020;28;20392;-60
2021/08/19 07:00:29;;;;;;;14.50;8.70;;;;;;;20.61;63.17;101298.31;5052810;28;20361;-60
2021/08/19 07:02:57;;;;;;;12.02;7.95;;;;;;;20.58;63.50;101308.34;5052841;28;20082;-59
2021/08/19 07:05:22;;;;;;;12.07;8.55;;;;;;;20.56;63.55;101295.22;5051956;28;20064;-59
2021/08/19 07:07:47;;;;;;;11.90;8.73;;;;;;;20.55;63.54;101304.13;5052623;28;20044;-59
2021/08/19 07:10:13;;;;;;;11.47;8.93;;;;;;;20.53;63.76;101307.91;5052879;28;20424;-59
2021/08/19 07:12:38;;;;;;;13.15;8.40;;;;;;;20.51;63.71;101313.31;5052114;28;20290;-67
2021/08/19 07:15:06;;;;;;;12.85;8.75;;;;;;;20.51;63.78;101308.03;5052267;28;20545;-61
2021/08/19 07:17:31;;;;;;;12.50;8.27;;;;;;;20.50;63.75;101311.63;5052702;28;20104;-59
2021/08/19 07:20:00;;;;;;;11.35;8.48;;;;;;;20.51;63.62;101313.31;5052211;28;20155;-58
2021/08/19 07:22:26;;;;;;;12.93;8.40;;;;;;;20.52;64.01;101314.16;5052951;28;20028;-59
2021/08/19 07:24:51;;;;;;;9.60;7.80;;;;;;;20.51;64.24;101305.38;5051906;28;20531;-59
2021/08/19 07:27:17;;;;;;;14.60;8.55;;;;;;;20.52;63.94;101304.41;5052316;28;20036;-59
2021/08/19 07:29:45;;;;;;;14.80;9.68;;;;;;;20.54;64.13;101309.59;5052830;28;20035;-59
2021/08/19 07:32:11;;;;;;;13.02;8.50;;;;;;;20.56;64.22;101307.63;5053167;28;20036;-59
2021/08/19 07:34:36;;;;;;;11.00;8.05;;;;;;;20.54;64.15;101306.94;5053784;28;20029;-62
2021/08/19 07:37:04;;;;;;;11.70;8.25;;;;;;;20.57;64.12;101310.16;5053591;28;20524;-62
2021/08/19 07:39:29;;;;;;;14.00;8.70;;;;;;;20.63;64.07;101314.06;5052606;28;20100;-61
2021/08/19 07:41:55;;;;;;;11.63;7.90;;;;;;;20.65;63.98;101317.50;5052881;28;20087;-60
2021/08/19 07:44:20;;;;;;;13.52;8.10;;;;;;;20.66;64.14;101316.50;5052559;28;20025;-62
2021/08/19 07:46:46;;;;;;;10.77;8.38;;;;;;;20.64;64.21;101316.63;5051715;28;20032;-60
2021/08/19 07:49:13;;;;;;;12.40;8.48;;;;;;;20.67;64.24;101314.72;5052497;28;20108;-60
2021/08/19 07:51:38;;;;;;;14.73;9.18;;;;;;;20.67;64.18;101315.53;5052514;28;20501;-60
2021/08/19 07:54:04;;;;;;;14.88;8.32;;;;;;;20.72;64.13;101320.44;5051566;28;20029;-59
2021/08/19 07:56:29;;;;;;;11.02;8.20;;;;;;;20.72;64.08;101320.44;5052268;28;20059;-61
2021/08/19 07:58:54;;;;;;;12.38;8.50;;;;;;;20.73;64.14;101322.97;5051527;28;20033;-60
2021/08/19 08:01:20;;;;;;;11.93;8.18;;;;;;;20.74;64.19;101329.09;5051907;28;20119;-60
2021/08/19 08:03:48;;;;;;;11.60;8.38;;;;;;;20.74;64.16;101326.44;5053503;28;20082;-61
2021/08/19 08:06:13;;;;;;;11.27;7.78;;;;;;;20.74;64.29;101326.44;5053006;28;20477;-61
2021/08/19 08:08:38;;;;;;;12.38;8.48;;;;;;;20.77;64.19;101337.63;5053235;28;20147;-61
2021/08/19 08:11:04;;;;;;;12.65;7.55;;;;;;;20.79;64.17;101337.50;5052739;28;20017;-62
2021/08/19 08:13:30;;;;;;;11.73;7.35;;;;;;;20.78;64.23;101336.66;5052316;28;20028;-59
2021/08/19 08:15:55;;;;;;;12.80;7.65;;;;;;;20.75;64.25;101328.13;5051336;28;20029;-60
2021/08/19 08:18:21;;;;;;;11.68;7.97;;;;;;;20.73;64.18;101322.97;5052634;28;20541;-59
2021/08/19 08:20:46;;;;;;;11.13;8.10;;;;;;;20.76;64.26;101329.81;5052168;28;20519;-61
2021/08/19 08:23:19;;;;;;;11.63;7.70;;;;;;;20.76;64.33;101335.97;5051460;28;20445;-61
2021/08/19 08:25:48;;;;;;;9.45;8.02;;;;;;;20.78;64.23;101341.13;5052228;28;20079;-60
2021/08/19 08:28:26;;;;;;;15.60;8.25;;;;;;;20.77;64.23;101337.63;5051648;28;20528;-60
2021/08/19 08:30:51;;;;;;;13.23;8.50;;;;;;;20.76;64.27;101327.16;5052272;28;20116;-61
2021/08/19 08:33:17;;;;;;;12.30;8.07;;;;;;;20.78;64.35;101331.34;5052420;28;20428;-60
2021/08/19 08:35:43;;;;;;;12.07;7.93;;;;;;;20.78;64.53;101327.88;5051457;28;20465;-61
2021/08/19 08:38:17;;;;;;;11.68;7.25;;;;;;;20.81;64.57;101343.50;5052323;28;20100;-60
2021/08/19 08:40:45;;;;;;;14.68;7.95;;;;;;;20.82;64.60;101339.88;5055632;28;20533;-59
2021/08/19 08:43:11;;;;;;;14.38;8.02;;;;;;;20.83;64.46;101341.56;5055434;28;20031;-62
2021/08/19 08:45:38;;;;;;;17.23;8.30;;;;;;;20.81;64.54;101340.88;5055843;28;20017;-59
2021/08/19 08:48:07;;;;;;;14.63;8.15;;;;;;;20.82;64.40;101347.81;5055506;28;20029;-60
2021/08/19 08:50:33;;;;;;;10.70;8.05;;;;;;;20.83;64.59;101341.56;5054681;28;20045;-60
2021/08/19 08:52:59;;;;;;;13.25;8.20;;;;;;;20.82;64.62;101343.38;5055313;28;20021;-60
2021/08/19 08:55:25;;;;;;;13.93;7.90;;;;;;;20.83;64.58;101341.56;5055440;28;20412;-59
2021/08/19 08:57:52;;;;;;;15.07;8.30;;;;;;;20.84;64.78;101341.44;5055375;28;20025;-59
2021/08/19 09:00:20;;;;;;;10.85;7.70;;;;;;;20.87;64.63;101347.44;5055576;28;20021;-60
2021/08/19 09:02:45;;;;;;;14.25;7.35;;;;;;;20.88;64.57;101351.78;5054418;28;20037;-60
2021/08/19 09:05:24;;;;;;;11.00;7.75;;;;;;;20.90;64.49;101355.13;5054886;28;20108;-60
2021/08/19 09:07:59;;;;;;;10.88;7.57;;;;;;;20.92;64.32;101358.47;5055296;28;20036;-61
2021/08/19 09:10:28;;;;;;;13.65;7.63;;;;;;;20.92;64.46;101363.78;5054743;28;20029;-59
2021/08/19 09:12:54;;;;;;;16.00;7.97;;;;;;;20.91;64.56;101362.13;5054329;28;20036;-59
2021/08/19 09:15:21;;;;;;;11.73;7.53;;;;;;;20.89;64.56;101364.88;5055195;28;20029;-57
2021/08/19 09:17:56;;;;;;;14.25;8.00;;;;;;;20.90;64.36;101361.25;5054122;28;20024;-57
2021/08/19 09:20:43;;;;;;;10.95;7.57;;;;;;;20.91;64.47;101362.94;5055242;28;20078;-60
2021/08/19 09:23:14;;;;;;;11.55;7.45;;;;;;;20.90;64.39;101363.91;5054787;28;20054;-64
2021/08/19 09:25:47;;;;;;;13.23;8.02;;;;;;;20.90;64.31;101365.72;5054396;28;20035;-62
2021/08/19 09:28:19;;;;;;;12.38;7.88;;;;;;;20.89;64.56;101370.19;5054849;28;20025;-63
2021/08/19 09:30:47;;;;;;;12.10;8.30;;;;;;;20.90;64.54;101371.03;5054369;28;20044;-62
2021/08/19 09:33:15;;;;;;;11.70;7.85;;;;;;;20.90;64.58;101365.72;5053979;28;20051;-61
2021/08/19 09:35:41;;;;;;;12.05;8.27;;;;;;;20.90;64.63;101368.38;5054565;28;20025;-62
2021/08/19 09:38:12;;;;;;;10.45;7.55;;;;;;;20.89;64.56;101370.19;5054225;28;20036;-64
2021/08/19 09:40:41;;;;;;;11.95;8.27;;;;;;;20.89;64.71;101369.38;5054339;28;20075;-61
2021/08/19 09:43:07;;;;;;;12.65;8.02;;;;;;;20.90;64.77;101369.19;5054146;28;20026;-60
2021/08/19 09:45:43;;;;;;;12.90;8.63;;;;;;;20.91;64.74;101372.72;5053944;28;20040;-63
2021/08/19 09:48:12;;;;;;;12.45;8.48;;;;;;;20.91;64.75;101370.06;5054525;28;20018;-61
2021/08/19 09:50:38;;;;;;;12.40;8.13;;;;;;;20.92;64.71;101363.78;5053116;28;20440;-59
2021/08/19 09:53:23;;;;;;;12.20;8.93;;;;;;;20.92;64.60;101359.34;5053278;28;20104;-61
2021/08/19 09:55:50;;;;;;;12.13;8.77;;;;;;;20.91;64.69;101364.75;5053837;28;20477;-61
2021/08/19 09:58:32;;;;;;;12.15;8.20;;;;;;;20.92;64.80;101361.97;5054325;28;20024;-62
2021/08/19 10:00:58;;;;;;;10.77;8.10;;;;;;;20.92;64.78;101361.97;5053223;28;20025;-62
2021/08/19 10:03:25;;;;;;;13.98;8.63;;;;;;;20.92;64.95;101364.63;5053627;28;20056;-62
2021/08/19 10:05:50;;;;;;;13.32;8.50;;;;;;;20.92;65.06;101361.13;5053723;28;20025;-60
2021/08/19 10:08:15;;;;;;;13.57;8.85;;;;;;;20.91;65.04;101359.47;5053410;28;20032;-61
2021/08/19 10:10:50;;;;;;;17.48;9.15;;;;;;;20.90;65.05;101353.31;5054038;28;20025;-60
2021/08/19 10:13:20;;;;;;;13.05;9.07;;;;;;;20.93;64.89;101361.00;5053970;28;20021;-60
2021/08/19 10:15:47;;;;;;;15.25;9.43;;;;;;;20.93;65.12;101358.34;5053100;28;20045;-61
2021/08/19 10:18:18;;;;;;;14.38;10.18;;;;;;;20.94;65.19;101365.34;5053743;28;20583;-60
2021/08/19 10:20:53;;;;;;;14.38;10.45;;;;;;;20.96;65.05;101358.09;5052830;28;20029;-61
2021/08/19 10:23:22;;;;;;;12.32;10.27;;;;;;;20.98;65.24;101358.81;5053781;28;20388;-60
2021/08/19 10:26:03;;;;;;;16.98;12.07;;;;;;;20.97;65.38;101358.94;5053410;28;20029;-61
2021/08/19 10:28:47;;;;;;;15.57;10.30;;;;;;;20.94;65.38;101352.09;5052904;28;20017;-59
2021/08/19 10:31:41;;;;;;;14.98;11.88;;;;;;;21.00;65.37;101361.34;5053573;28;20021;-60
2021/08/19 10:34:07;;;;;;;15.52;13.43;;;;;;;20.99;65.50;101360.47;5053419;28;20041;-59
2021/08/19 10:36:41;;;;;;;18.27;14.73;;;;;;;21.00;65.44;101362.16;5052685;28;20032;-61
2021/08/19 10:39:18;;;;;;;20.27;14.27;;;;;;;21.00;65.68;101362.16;5052535;28;20037;-60
2021/08/19 10:41:47;;;;;;;17.83;13.90;;;;;;;21.00;65.62;101350.72;5052083;28;20389;-60
2021/08/19 10:44:13;;;;;;;15.82;13.30;;;;;;;21.00;65.67;101348.91;5053192;28;20024;-59
2021/08/19 10:46:49;;;;;;;17.02;13.27;;;;;;;21.04;65.44;101356.59;5052448;28;20044;-60
2021/08/19 10:49:37;;;;;;;20.30;13.20;;;;;;;21.04;65.31;101352.13;5052306;28;20481;-61
2021/08/19 10:52:08;;;;;;;17.00;13.40;;;;;;;21.05;65.29;101348.53;5053687;28;20025;-60
2021/08/19 10:54:35;;;;;;;17.27;12.85;;;;;;;21.05;65.25;101350.34;5053487;28;20025;-60
2021/08/19 10:57:20;;;;;;;16.05;13.15;;;;;;;21.04;65.12;101338.06;5052252;28;20096;-60
2021/08/19 10:59:56;;;;;;;18.48;13.13;;;;;;;21.02;64.96;101346.97;5038645;28;20547;-60
2021/08/19 11:02:36;;;;;;;15.38;12.10;;;;;;;21.01;65.00;101355.03;5052860;28;20064;-60
2021/08/19 11:05:02;;;;;;;13.88;12.13;;;;;;;21.00;65.02;101356.03;5053020;28;20512;-61
2021/08/19 11:07:50;;;;;;;14.85;12.02;;;;;;;20.98;65.25;101356.16;5053186;28;20060;-60
2021/08/19 11:10:20;;;;;;;15.82;12.10;;;;;;;20.94;64.81;101345.97;5052344;28;20033;-60
2021/08/19 11:12:47;;;;;;;14.43;12.10;;;;;;;20.97;65.02;101353.66;5052639;28;20020;-60
2021/08/19 11:15:19;;;;;;;13.68;12.25;;;;;;;20.95;65.06;101350.25;5053015;28;20033;-59
2021/08/19 11:17:57;;;;;;;16.30;12.63;;;;;;;20.97;65.08;101353.66;5050751;28;20075;-60
2021/08/19 11:20:46;;;;;;;17.05;12.25;;;;;;;20.94;65.13;101354.72;5052778;28;20091;-61
2021/08/19 11:23:12;;;;;;;16.55;11.25;;;;;;;20.94;65.08;101354.72;5052724;28;20108;-61